Time;durP1;ratioP1;P1;durP2;ratioP2;P2;SDS_P1;SDS_P2;PMS_P1;PMS_P2;Temp;Humidity;BMP_temperature;BMP_pressure;BME280_temperature;BME280_humidity;BME280_pressure;Samples;Min_cycle;Max_cycle;Signal;HPM_P1;HPM_P2
2022/11/30 00:02:13;;;;;;;55.40;40.60;;;7.50;99.90;;;;;;5014804;28;20226;-81
2022/11/30 00:04:39;;;;;;;47.95;37.15;;;7.60;99.90;;;;;;5014902;28;20218;-81
2022/11/30 00:07:11;;;;;;;56.17;42.60;;;7.60;99.90;;;;;;4999711;28;20223;-80
2022/11/30 00:09:43;;;;;;;58.42;42.80;;;7.50;99.90;;;;;;4992679;28;20226;-80
2022/11/30 00:12:11;;;;;;;52.92;40.55;;;7.50;99.90;;;;;;4998135;28;20315;-80
2022/11/30 00:14:41;;;;;;;55.60;40.97;;;7.50;99.90;;;;;;4997630;28;20210;-80
2022/11/30 00:17:08;;;;;;;57.95;40.75;;;7.50;99.90;;;;;;4990604;28;20250;-80
2022/11/30 00:19:35;;;;;;;60.70;41.15;;;7.40;99.90;;;;;;5013468;28;20241;-80
2022/11/30 00:22:02;;;;;;;46.67;37.35;;;7.40;99.90;;;;;;5002203;28;20324;-81
2022/11/30 00:24:30;;;;;;;57.13;45.28;;;7.50;99.90;;;;;;5000219;28;20557;-81
2022/11/30 00:26:59;;;;;;;60.08;42.42;;;7.50;99.90;;;;;;5006568;28;20296;-81
2022/11/30 00:29:28;;;;;;;55.33;40.95;;;7.40;99.90;;;;;;5013939;28;20706;-81
2022/11/30 00:32:01;;;;;;;57.22;41.15;;;7.40;99.90;;;;;;5007040;28;20294;-82
2022/11/30 00:34:30;;;;;;;60.15;41.22;;;7.30;99.90;;;;;;5014029;28;20253;-80
2022/11/30 00:37:00;;;;;;;71.78;50.00;;;7.30;99.90;;;;;;5005280;28;20234;-80
2022/11/30 00:39:29;;;;;;;58.47;40.75;;;7.30;99.90;;;;;;5012432;28;20337;-78
2022/11/30 00:41:56;;;;;;;54.90;40.60;;;7.30;99.90;;;;;;5013185;28;20222;-80
2022/11/30 00:44:23;;;;;;;62.38;43.25;;;7.20;99.90;;;;;;5008942;28;20218;-80
2022/11/30 00:46:51;;;;;;;59.50;42.00;;;7.30;99.90;;;;;;5002408;28;20309;-80
2022/11/30 00:49:21;;;;;;;59.13;42.80;;;7.30;99.90;;;;;;4992179;28;20234;-80
2022/11/30 00:52:10;;;;;;;57.15;42.50;;;7.30;99.90;;;;;;5002485;28;20244;-81
2022/11/30 00:54:37;;;;;;;58.50;41.58;;;7.40;99.90;;;;;;4991468;28;20222;-80
2022/11/30 00:57:07;;;;;;;60.53;43.70;;;7.40;99.90;;;;;;5014350;28;20557;-79
2022/11/30 00:59:34;;;;;;;57.53;41.90;;;7.40;99.90;;;;;;5012534;28;20226;-79
2022/11/30 01:02:02;;;;;;;50.30;38.08;;;7.50;99.90;;;;;;5004356;28;20254;-79
2022/11/30 01:04:29;;;;;;;56.40;39.42;;;7.50;99.90;;;;;;5011460;28;20225;-79
2022/11/30 01:06:59;;;;;;;52.53;38.33;;;7.50;99.90;;;;;;5013143;28;20301;-79
2022/11/30 01:09:39;;;;;;;53.13;38.70;;;7.50;99.90;;;;;;5012061;28;20301;-79
2022/11/30 01:12:14;;;;;;;56.47;41.97;;;7.50;99.90;;;;;;5020034;28;20703;-79
2022/11/30 01:14:42;;;;;;;57.08;42.15;;;7.40;99.90;;;;;;5004702;28;20292;-79
2022/11/30 01:17:11;;;;;;;58.78;43.95;;;7.30;99.90;;;;;;4998980;28;20229;-79
2022/11/30 01:19:38;;;;;;;54.47;41.45;;;7.40;99.90;;;;;;5011485;28;20667;-79
2022/11/30 01:22:05;;;;;;;60.30;43.17;;;7.30;99.90;;;;;;5016472;28;20264;-81
2022/11/30 01:24:38;;;;;;;57.70;39.35;;;7.30;99.90;;;;;;5013783;28;20226;-81
2022/11/30 01:27:05;;;;;;;67.93;45.92;;;7.30;99.90;;;;;;5016877;28;20714;-80
2022/11/30 01:29:35;;;;;;;65.80;42.60;;;7.30;99.90;;;;;;5047123;28;20292;-81
2022/11/30 01:32:02;;;;;;;55.50;41.05;;;7.30;99.90;;;;;;5025910;28;20299;-79
2022/11/30 01:34:30;;;;;;;56.50;39.55;;;7.30;99.90;;;;;;5036105;28;20271;-81
2022/11/30 01:36:59;;;;;;;66.40;42.58;;;7.20;99.90;;;;;;5033497;28;20288;-79
2022/11/30 01:39:26;;;;;;;54.38;39.97;;;7.20;99.90;;;;;;5033228;28;20300;-82
2022/11/30 01:41:55;;;;;;;56.75;39.45;;;7.20;99.90;;;;;;5034116;28;20225;-82
2022/11/30 01:44:54;;;;;;;61.53;42.65;;;7.20;99.90;;;;;;5025222;28;20253;-82
2022/11/30 01:47:27;;;;;;;58.30;41.90;;;7.10;99.90;;;;;;4962233;28;20319;-79
2022/11/30 01:50:03;;;;;;;54.65;39.70;;;7.10;99.90;;;;;;5018487;28;20248;-79
2022/11/30 01:52:35;;;;;;;63.53;42.08;;;7.10;99.90;;;;;;5040772;28;20319;-79
2022/11/30 01:55:12;;;;;;;63.28;44.53;;;7.20;99.90;;;;;;5033513;28;20245;-79
2022/11/30 01:57:42;;;;;;;54.72;37.65;;;7.20;99.90;;;;;;5031514;28;20597;-82
2022/11/30 02:00:15;;;;;;;54.78;39.80;;;7.20;99.90;;;;;;5032717;28;20657;-79
2022/11/30 02:02:47;;;;;;;56.00;41.20;;;7.20;99.90;;;;;;5031636;28;20213;-81
2022/11/30 02:05:29;;;;;;;59.15;42.85;;;7.30;99.90;;;;;;5032143;28;20871;-79
2022/11/30 02:07:56;;;;;;;61.40;41.20;;;7.30;99.90;;;;;;5032744;28;20231;-79
2022/11/30 02:10:29;;;;;;;58.13;39.30;;;7.30;99.90;;;;;;5031718;28;20225;-80
2022/11/30 02:13:25;;;;;;;58.35;40.17;;;7.30;99.90;;;;;;5033576;28;20236;-81
2022/11/30 02:16:00;;;;;;;56.88;41.30;;;7.30;99.90;;;;;;5035392;28;20304;-82
2022/11/30 02:18:33;;;;;;;58.15;40.40;;;7.30;99.90;;;;;;5034412;28;20232;-79
2022/11/30 02:21:11;;;;;;;58.22;41.22;;;7.30;99.90;;;;;;5035619;28;20218;-82
2022/11/30 02:24:21;;;;;;;60.10;41.95;;;7.30;99.90;;;;;;5037295;28;20213;-81
2022/11/30 02:27:14;;;;;;;53.95;39.35;;;7.30;99.90;;;;;;5024606;28;20221;-80
2022/11/30 02:29:48;;;;;;;56.65;38.75;;;7.30;99.90;;;;;;5040703;28;20233;-80
2022/11/30 02:32:24;;;;;;;55.05;40.38;;;7.20;99.90;;;;;;5044503;28;20229;-80
2022/11/30 02:34:58;;;;;;;58.88;39.20;;;7.20;99.90;;;;;;5044427;28;20250;-81
2022/11/30 02:37:27;;;;;;;51.72;38.67;;;7.20;99.90;;;;;;5044022;28;20233;-79
2022/11/30 02:39:54;;;;;;;52.05;38.38;;;7.20;99.90;;;;;;5035173;28;20237;-79
2022/11/30 02:42:22;;;;;;;58.90;40.38;;;7.20;99.90;;;;;;5033522;28;20232;-80
2022/11/30 02:44:54;;;;;;;51.65;38.45;;;7.20;99.90;;;;;;5033379;28;20256;-78
2022/11/30 02:47:27;;;;;;;53.10;39.45;;;7.20;99.90;;;;;;5034343;28;20221;-79
2022/11/30 02:49:59;;;;;;;54.03;38.75;;;7.20;99.90;;;;;;5035009;28;20252;-79
2022/11/30 02:52:31;;;;;;;62.22;41.60;;;7.20;99.90;;;;;;5034225;28;20275;-79
2022/11/30 02:55:05;;;;;;;54.67;40.60;;;7.20;99.90;;;;;;5039792;28;20336;-82
2022/11/30 02:57:32;;;;;;;65.57;43.58;;;7.20;99.90;;;;;;5037175;28;20289;-79
2022/11/30 03:00:07;;;;;;;51.15;38.15;;;7.20;99.90;;;;;;5034030;28;20312;-81
2022/11/30 03:02:34;;;;;;;56.95;39.60;;;7.30;99.90;;;;;;5034626;28;20231;-79
2022/11/30 03:05:01;;;;;;;54.30;39.72;;;7.20;99.90;;;;;;5013812;28;20246;-79
2022/11/30 03:07:28;;;;;;;56.08;40.22;;;7.30;99.90;;;;;;5013662;28;20321;-81
2022/11/30 03:09:55;;;;;;;54.67;39.72;;;7.30;99.90;;;;;;5014349;28;20313;-78
2022/11/30 03:12:23;;;;;;;57.97;38.67;;;7.30;99.90;;;;;;5013328;28;20226;-79
2022/11/30 03:14:54;;;;;;;52.67;38.17;;;7.30;99.90;;;;;;5016220;28;20582;-81
2022/11/30 03:17:27;;;;;;;59.67;41.60;;;7.30;99.90;;;;;;5018151;28;20268;-81
2022/11/30 03:19:54;;;;;;;58.67;37.92;;;7.30;99.90;;;;;;5017440;28;20248;-81
2022/11/30 03:22:21;;;;;;;55.88;39.58;;;7.30;99.90;;;;;;5018576;28;20512;-82
2022/11/30 03:24:48;;;;;;;58.55;40.60;;;7.30;99.90;;;;;;5016552;28;20242;-79
2022/11/30 03:27:15;;;;;;;63.50;39.90;;;7.20;99.90;;;;;;5017276;28;20313;-79
2022/11/30 03:29:42;;;;;;;55.40;39.47;;;7.30;99.90;;;;;;5007892;28;20230;-81
2022/11/30 03:32:09;;;;;;;54.83;39.83;;;7.30;99.90;;;;;;5016199;28;20313;-81
2022/11/30 03:34:40;;;;;;;59.55;40.75;;;7.30;99.90;;;;;;5016960;28;20241;-80
2022/11/30 03:37:07;;;;;;;58.03;42.05;;;7.30;99.90;;;;;;5036167;28;20252;-81
2022/11/30 03:39:34;;;;;;;58.47;41.28;;;7.30;99.90;;;;;;5036489;28;20695;-79
2022/11/30 03:42:01;;;;;;;63.40;43.58;;;7.30;99.90;;;;;;5035922;28;20286;-79
2022/11/30 03:48:02;;;;;;;60.33;41.97;;;7.20;99.90;;;;;;5113541;27;20629;-80
2022/11/30 03:50:29;;;;;;;61.42;44.70;;;7.20;99.90;;;;;;5090189;28;20219;-80
2022/11/30 03:52:56;;;;;;;54.58;40.75;;;7.20;99.90;;;;;;5089791;28;20219;-78
2022/11/30 03:55:23;;;;;;;59.80;41.15;;;7.20;99.90;;;;;;5090003;28;20306;-81
2022/11/30 03:57:52;;;;;;;59.70;41.10;;;7.10;99.90;;;;;;5090659;28;20227;-81
2022/11/30 04:00:20;;;;;;;61.13;42.13;;;7.10;99.90;;;;;;5090671;28;20223;-81
2022/11/30 04:02:47;;;;;;;56.00;39.33;;;7.10;99.90;;;;;;5090084;28;20234;-81
2022/11/30 04:05:21;;;;;;;51.00;39.67;;;7.00;99.90;;;;;;5081811;28;20532;-81
2022/11/30 04:07:48;;;;;;;54.03;39.15;;;7.10;99.90;;;;;;5088287;28;20257;-81
2022/11/30 04:10:15;;;;;;;54.58;40.20;;;7.10;99.90;;;;;;5090631;28;20257;-81
2022/11/30 04:12:57;;;;;;;57.92;42.20;;;7.10;99.90;;;;;;5089933;28;20279;-79
2022/11/30 04:15:24;;;;;;;61.25;41.00;;;7.10;99.90;;;;;;5089601;28;20660;-79
2022/11/30 04:17:53;;;;;;;58.92;40.97;;;7.10;99.90;;;;;;5088749;28;20247;-79
2022/11/30 04:20:21;;;;;;;57.70;39.70;;;7.10;99.90;;;;;;5089638;28;20537;-81
2022/11/30 04:22:59;;;;;;;60.15;39.80;;;7.00;99.90;;;;;;5089103;28;20281;-80
2022/11/30 04:25:26;;;;;;;58.13;40.17;;;7.10;99.90;;;;;;5089792;28;20218;-80
2022/11/30 04:27:53;;;;;;;52.08;36.70;;;7.10;99.90;;;;;;5089089;28;20227;-80
2022/11/30 04:30:20;;;;;;;58.00;41.60;;;7.10;99.90;;;;;;5089451;28;20302;-79
2022/11/30 04:32:47;;;;;;;55.53;39.75;;;7.10;99.90;;;;;;5087325;28;20230;-78
2022/11/30 04:35:15;;;;;;;50.83;38.45;;;7.20;99.90;;;;;;5089263;28;20540;-79
2022/11/30 04:37:43;;;;;;;53.22;39.25;;;7.10;99.90;;;;;;5088402;28;20227;-79
2022/11/30 04:40:11;;;;;;;58.33;41.05;;;7.10;99.90;;;;;;5089881;28;20231;-82
2022/11/30 04:42:38;;;;;;;66.57;42.90;;;7.00;99.90;;;;;;5089234;28;20514;-82
2022/11/30 04:45:05;;;;;;;62.38;42.65;;;7.00;99.90;;;;;;5089693;28;20224;-82
2022/11/30 04:47:36;;;;;;;53.20;40.22;;;6.90;99.90;;;;;;5089152;28;20224;-82
2022/11/30 04:50:03;;;;;;;58.75;41.55;;;6.90;99.90;;;;;;5088868;28;20230;-82
2022/11/30 04:52:30;;;;;;;65.18;43.00;;;6.90;99.90;;;;;;5089317;28;20223;-81
2022/11/30 04:54:59;;;;;;;62.65;41.75;;;6.80;99.90;;;;;;5088807;28;20235;-82
2022/11/30 04:57:26;;;;;;;57.72;41.45;;;6.70;99.90;;;;;;5086860;28;20244;-82
2022/11/30 04:59:53;;;;;;;63.38;44.80;;;6.70;99.90;;;;;;5076065;28;20236;-81
2022/11/30 05:02:20;;;;;;;60.28;41.67;;;6.80;99.90;;;;;;5076067;28;20309;-81
2022/11/30 05:04:47;;;;;;;63.58;42.08;;;6.70;99.90;;;;;;5075745;28;20680;-79
2022/11/30 05:07:14;;;;;;;64.68;43.78;;;6.60;99.90;;;;;;5075490;28;20228;-79
2022/11/30 05:09:41;;;;;;;60.95;42.72;;;6.60;99.90;;;;;;5075262;28;20234;-82
2022/11/30 05:12:10;;;;;;;64.32;44.47;;;6.50;99.90;;;;;;5075605;28;20661;-80
2022/11/30 05:14:37;;;;;;;64.97;41.83;;;6.50;99.90;;;;;;5075594;28;20542;-80
2022/11/30 05:17:07;;;;;;;62.13;42.50;;;6.50;99.90;;;;;;5074475;28;20648;-79
2022/11/30 05:19:34;;;;;;;61.08;42.40;;;6.40;99.90;;;;;;5075149;28;20278;-80
2022/11/30 05:22:04;;;;;;;63.92;43.17;;;6.50;99.90;;;;;;5075084;28;20295;-80
2022/11/30 05:24:31;;;;;;;62.65;42.08;;;6.60;99.90;;;;;;5075112;28;20776;-80
2022/11/30 05:27:00;;;;;;;63.55;42.58;;;6.60;99.90;;;;;;5074894;28;20307;-79
2022/11/30 05:29:34;;;;;;;60.90;42.38;;;6.60;99.90;;;;;;5075158;28;20224;-80
2022/11/30 05:32:01;;;;;;;65.10;45.60;;;6.50;99.90;;;;;;5074670;28;20613;-80
2022/11/30 05:34:28;;;;;;;63.47;40.80;;;6.50;99.90;;;;;;5075261;28;20641;-80
2022/11/30 05:36:55;;;;;;;61.47;42.47;;;6.60;99.90;;;;;;5073896;28;20216;-80
2022/11/30 05:39:22;;;;;;;63.28;41.42;;;6.50;99.90;;;;;;5074590;28;20298;-80
2022/11/30 05:41:54;;;;;;;59.50;42.33;;;6.60;99.90;;;;;;5074640;28;20224;-79
2022/11/30 05:44:21;;;;;;;60.33;42.72;;;6.60;99.90;;;;;;5075006;28;20228;-80
2022/11/30 05:46:49;;;;;;;65.55;42.78;;;6.70;99.90;;;;;;5074515;28;20244;-80
2022/11/30 05:49:16;;;;;;;63.33;42.55;;;6.70;99.90;;;;;;5073895;28;20289;-79
2022/11/30 05:51:47;;;;;;;68.47;42.65;;;6.60;99.90;;;;;;5074862;28;20226;-80
2022/11/30 05:54:16;;;;;;;65.47;42.50;;;6.70;99.90;;;;;;5073242;28;20224;-80
2022/11/30 05:56:43;;;;;;;55.30;40.60;;;6.70;99.90;;;;;;5074912;28;20216;-79
2022/11/30 05:59:10;;;;;;;60.35;41.63;;;6.70;99.90;;;;;;5073812;28;20243;-79
2022/11/30 06:01:37;;;;;;;61.95;41.33;;;6.70;99.90;;;;;;5074869;28;20697;-79
2022/11/30 06:04:10;;;;;;;60.85;42.75;;;6.60;99.90;;;;;;5074437;28;20240;-80
2022/11/30 06:06:37;;;;;;;60.75;42.90;;;6.60;99.90;;;;;;5075100;28;20223;-80
2022/11/30 06:09:04;;;;;;;58.58;39.97;;;6.60;99.90;;;;;;5074364;28;20232;-80
2022/11/30 06:11:33;;;;;;;55.75;42.53;;;6.60;99.90;;;;;;5074756;28;20248;-80
2022/11/30 06:14:00;;;;;;;57.15;41.63;;;6.60;99.90;;;;;;5075167;28;20224;-82
2022/11/30 06:16:27;;;;;;;55.42;40.83;;;6.70;99.90;;;;;;5078527;28;20307;-82
2022/11/30 06:18:55;;;;;;;57.50;40.47;;;6.70;99.90;;;;;;5087177;28;20235;-82
2022/11/30 06:21:26;;;;;;;54.10;40.13;;;6.80;99.90;;;;;;5089357;28;20578;-81
2022/11/30 06:23:56;;;;;;;57.50;42.05;;;6.80;99.90;;;;;;5089440;28;20236;-80
2022/11/30 06:26:23;;;;;;;53.13;37.60;;;6.80;99.90;;;;;;5064067;28;20224;-80
2022/11/30 06:28:50;;;;;;;53.40;39.38;;;6.90;99.90;;;;;;5073679;28;20315;-80
2022/11/30 06:31:17;;;;;;;59.88;41.20;;;6.90;99.90;;;;;;5073199;28;20307;-79
2022/11/30 06:33:44;;;;;;;64.63;40.63;;;6.90;99.90;;;;;;5073441;28;20243;-79
2022/11/30 06:36:11;;;;;;;57.60;40.58;;;7.00;99.90;;;;;;5073202;28;20219;-79
2022/11/30 06:38:48;;;;;;;65.75;43.40;;;7.00;99.90;;;;;;5073931;28;20224;-79
2022/11/30 06:41:15;;;;;;;56.17;39.70;;;7.00;99.90;;;;;;5073152;28;20244;-79
2022/11/30 06:43:42;;;;;;;52.20;36.95;;;7.00;99.90;;;;;;5074325;28;20612;-81
2022/11/30 06:46:11;;;;;;;58.10;39.55;;;7.00;99.90;;;;;;5074014;28;20263;-81
2022/11/30 06:48:39;;;;;;;55.10;42.30;;;7.10;99.90;;;;;;5073833;28;20262;-81
2022/11/30 06:51:07;;;;;;;54.90;41.38;;;7.10;99.90;;;;;;5079909;28;20308;-81
2022/11/30 06:53:34;;;;;;;61.42;40.35;;;7.00;99.90;;;;;;5074482;28;20258;-81
2022/11/30 06:56:05;;;;;;;56.10;39.30;;;6.90;99.90;;;;;;5074408;28;20224;-81
2022/11/30 06:58:32;;;;;;;52.05;37.45;;;6.90;99.90;;;;;;5074156;28;20212;-82
2022/11/30 07:01:05;;;;;;;59.70;40.90;;;6.90;99.90;;;;;;5074504;28;20248;-81
2022/11/30 07:03:32;;;;;;;58.75;40.20;;;6.90;99.90;;;;;;5073467;28;20587;-81
2022/11/30 07:05:59;;;;;;;57.97;42.25;;;7.00;99.90;;;;;;5073808;28;20223;-81
2022/11/30 07:08:31;;;;;;;57.67;40.63;;;7.00;99.90;;;;;;5073601;28;20239;-81
2022/11/30 07:11:00;;;;;;;54.50;38.97;;;6.90;99.90;;;;;;5073763;28;20307;-81
2022/11/30 07:13:28;;;;;;;63.00;40.45;;;7.00;99.90;;;;;;5072941;28;20692;-82
2022/11/30 07:16:00;;;;;;;57.05;40.17;;;7.00;99.90;;;;;;5074117;28;20234;-81
2022/11/30 07:18:28;;;;;;;56.30;40.45;;;6.90;99.90;;;;;;5074205;28;20674;-81
2022/11/30 07:21:00;;;;;;;60.55;40.58;;;7.00;99.90;;;;;;5074432;28;20286;-82
2022/11/30 07:26:11;;;;;;;57.22;40.45;;;6.80;99.90;;;;;;5073408;28;20277;-82
2022/11/30 07:28:41;;;;;;;53.63;37.60;;;6.80;99.90;;;;;;5072974;28;20220;-81
2022/11/30 07:31:16;;;;;;;59.53;41.22;;;6.80;99.90;;;;;;5074487;28;20307;-82
2022/11/30 07:33:43;;;;;;;60.80;40.92;;;6.80;99.90;;;;;;5074844;28;20711;-81
2022/11/30 07:36:14;;;;;;;50.38;36.70;;;6.90;99.90;;;;;;5078346;28;20582;-81
2022/11/30 07:38:41;;;;;;;55.05;37.88;;;6.90;99.90;;;;;;5074034;28;20684;-81
2022/11/30 07:41:12;;;;;;;53.80;40.22;;;7.00;99.90;;;;;;5078456;28;20582;-79
2022/11/30 07:43:41;;;;;;;49.95;36.88;;;7.10;99.90;;;;;;5072009;28;20355;-79
2022/11/30 07:46:14;;;;;;;61.95;41.67;;;7.10;99.90;;;;;;5072453;28;20236;-79
2022/11/30 07:48:41;;;;;;;54.33;37.17;;;7.20;99.90;;;;;;5071457;28;20231;-79
2022/11/30 07:51:12;;;;;;;57.28;38.20;;;7.20;99.90;;;;;;5072959;28;20227;-81
2022/11/30 07:53:39;;;;;;;52.88;38.30;;;7.10;99.90;;;;;;5073038;28;20245;-81
2022/11/30 07:56:09;;;;;;;60.22;39.08;;;7.10;99.90;;;;;;5072497;28;20219;-79
2022/11/30 07:58:45;;;;;;;53.70;38.97;;;7.20;99.90;;;;;;5072219;28;20308;-78
2022/11/30 08:01:14;;;;;;;52.20;39.67;;;7.20;99.90;;;;;;5072794;28;20231;-79
2022/11/30 08:03:41;;;;;;;57.75;38.33;;;7.20;99.90;;;;;;5072748;28;20302;-81
2022/11/30 08:06:10;;;;;;;55.63;38.60;;;7.20;99.90;;;;;;5069144;28;20222;-80
2022/11/30 08:08:40;;;;;;;53.40;36.90;;;7.30;99.90;;;;;;5082690;28;20231;-82
2022/11/30 08:11:09;;;;;;;56.78;39.67;;;7.30;99.90;;;;;;5073956;28;20286;-82
2022/11/30 08:13:38;;;;;;;50.40;37.90;;;7.30;99.90;;;;;;5072724;28;20602;-80
2022/11/30 08:16:09;;;;;;;53.15;37.65;;;7.30;99.90;;;;;;5073331;28;20235;-79
2022/11/30 08:18:36;;;;;;;54.72;38.40;;;7.20;99.90;;;;;;5072397;28;20228;-81
2022/11/30 08:21:22;;;;;;;56.67;39.30;;;7.20;99.90;;;;;;5074298;28;20545;-81
2022/11/30 08:23:54;;;;;;;55.70;39.00;;;7.20;99.90;;;;;;5072576;28;20295;-78
2022/11/30 08:26:32;;;;;;;52.80;38.60;;;7.10;99.90;;;;;;5074440;28;20289;-81
2022/11/30 08:29:01;;;;;;;54.38;39.88;;;7.10;99.90;;;;;;5075481;28;20227;-81
2022/11/30 08:31:30;;;;;;;51.25;37.13;;;7.00;99.90;;;;;;5079620;28;20310;-79
2022/11/30 08:33:58;;;;;;;57.92;39.65;;;7.10;99.90;;;;;;5083359;28;20226;-79
2022/11/30 08:36:28;;;;;;;48.42;36.97;;;7.10;99.90;;;;;;5084114;28;20269;-79
2022/11/30 08:38:56;;;;;;;61.38;38.10;;;7.10;99.90;;;;;;5081954;28;20247;-78
2022/11/30 08:41:27;;;;;;;52.88;38.55;;;7.10;99.90;;;;;;5080134;28;20239;-78
2022/11/30 09:30:54;;;;;;;49.97;38.20;;;7.40;99.90;;;;;;5065227;28;20247;-79
2022/11/30 09:33:22;;;;;;;53.92;36.70;;;7.50;99.90;;;;;;5088546;28;20247;-79
2022/11/30 09:35:56;;;;;;;50.15;36.53;;;7.50;99.90;;;;;;5074792;28;20261;-78
2022/11/30 09:38:34;;;;;;;53.00;36.22;;;7.50;99.90;;;;;;5075383;28;20247;-78
2022/11/30 09:41:08;;;;;;;50.83;35.78;;;7.50;99.90;;;;;;5074878;28;20227;-79
2022/11/30 09:46:45;;;;;;;54.72;36.15;;;7.70;99.90;;;;;;5074613;28;20243;-80
2022/11/30 10:43:58;;;;;;;55.95;38.47;;;7.80;99.90;;;;;;5073993;28;20254;-80
2022/11/30 10:46:33;;;;;;;49.60;37.42;;;7.80;99.90;;;;;;5074955;28;20220;-79
2022/11/30 10:49:04;;;;;;;53.80;37.83;;;7.90;99.90;;;;;;5065725;28;20224;-77
2022/11/30 10:51:33;;;;;;;51.42;39.15;;;7.90;99.90;;;;;;5073306;28;20224;-77
2022/11/30 10:54:01;;;;;;;53.50;38.58;;;7.90;99.90;;;;;;5073487;28;20307;-77
2022/11/30 10:56:30;;;;;;;51.53;36.92;;;8.00;99.90;;;;;;5072496;28;20750;-75
2022/11/30 10:59:03;;;;;;;46.30;35.60;;;8.00;99.90;;;;;;5064710;28;20228;-75
2022/11/30 11:01:38;;;;;;;53.13;37.08;;;8.20;99.90;;;;;;5073323;28;20242;-75
2022/11/30 11:04:17;;;;;;;54.97;39.13;;;8.20;99.90;;;;;;5073581;28;20227;-75
2022/11/30 11:06:46;;;;;;;53.45;37.15;;;8.20;99.90;;;;;;5072889;28;20295;-75
2022/11/30 11:09:36;;;;;;;48.30;35.17;;;8.20;99.90;;;;;;5073285;28;20713;-76
2022/11/30 11:12:05;;;;;;;52.42;36.03;;;8.10;99.90;;;;;;5074208;28;20231;-77
2022/11/30 11:15:07;;;;;;;50.72;36.95;;;8.10;99.90;;;;;;5065954;28;20271;-77
2022/11/30 11:17:34;;;;;;;52.80;38.08;;;8.10;99.90;;;;;;5072391;28;20292;-76
2022/11/30 11:20:01;;;;;;;50.17;34.67;;;8.20;99.90;;;;;;5073313;28;20311;-77
2022/11/30 11:22:31;;;;;;;45.50;34.15;;;8.20;99.90;;;;;;5072777;28;20310;-77
2022/11/30 11:25:11;;;;;;;49.72;36.40;;;8.20;99.90;;;;;;5073260;28;20311;-77
2022/11/30 11:27:39;;;;;;;50.38;35.33;;;8.10;99.90;;;;;;5072489;28;20223;-76
2022/11/30 11:30:15;;;;;;;51.25;36.25;;;8.10;99.90;;;;;;5073332;28;20231;-77
2022/11/30 11:32:58;;;;;;;51.08;35.42;;;8.20;99.90;;;;;;5072988;28;20285;-77
2022/11/30 11:35:37;;;;;;;47.10;35.00;;;8.20;99.90;;;;;;5072710;28;20618;-78
2022/11/30 11:38:17;;;;;;;42.20;33.95;;;8.30;99.90;;;;;;5073076;28;20224;-78
2022/11/30 11:40:52;;;;;;;48.38;34.97;;;8.30;99.90;;;;;;5072797;28;20247;-76
2022/11/30 11:43:19;;;;;;;48.30;35.28;;;8.40;99.90;;;;;;5072718;28;20231;-77
2022/11/30 11:45:53;;;;;;;55.17;37.85;;;8.40;99.90;;;;;;5071570;28;20224;-77
2022/11/30 11:48:38;;;;;;;55.15;38.63;;;8.50;99.90;;;;;;5072871;28;20314;-76
2022/11/30 11:51:09;;;;;;;52.88;37.10;;;8.50;99.90;;;;;;5083858;28;20281;-78
2022/11/30 11:53:49;;;;;;;47.95;35.80;;;8.40;99.90;;;;;;5072617;28;20302;-78
2022/11/30 11:56:22;;;;;;;55.70;40.13;;;8.40;99.90;;;;;;5072425;28;20239;-76
2022/11/30 11:58:55;;;;;;;52.47;37.55;;;8.40;99.90;;;;;;5073096;28;20228;-76
2022/11/30 12:01:46;;;;;;;54.65;40.35;;;8.50;99.90;;;;;;5071050;28;20263;-77
2022/11/30 12:04:33;;;;;;;55.80;39.33;;;8.50;99.90;;;;;;5070680;28;20319;-77
2022/11/30 12:07:04;;;;;;;55.83;43.17;;;8.50;99.90;;;;;;5072394;28;20227;-77
2022/11/30 12:09:37;;;;;;;56.15;40.47;;;8.50;99.90;;;;;;5075467;28;20246;-76
2022/11/30 12:12:04;;;;;;;56.97;40.45;;;8.50;99.90;;;;;;5073836;28;20261;-76
2022/11/30 12:14:34;;;;;;;59.88;43.88;;;8.50;99.90;;;;;;5076339;28;20219;-76
2022/11/30 12:17:26;;;;;;;58.17;43.05;;;8.50;99.90;;;;;;5076550;28;20230;-76
2022/11/30 12:20:07;;;;;;;56.30;41.67;;;8.50;99.90;;;;;;5076952;28;20223;-77
2022/11/30 12:22:48;;;;;;;56.22;40.00;;;8.40;99.90;;;;;;5076713;28;20219;-78
2022/11/30 12:25:24;;;;;;;62.63;40.45;;;8.40;99.90;;;;;;5089174;28;20657;-76
2022/11/30 12:28:09;;;;;;;56.25;39.67;;;8.40;99.90;;;;;;5075989;28;20310;-77
2022/11/30 12:30:44;;;;;;;60.80;42.65;;;8.30;99.90;;;;;;5075663;28;20258;-77
2022/11/30 12:33:26;;;;;;;63.10;41.83;;;8.30;99.90;;;;;;5076474;28;20306;-77
2022/11/30 12:36:02;;;;;;;65.80;47.10;;;8.20;99.90;;;;;;5091293;28;20406;-77
2022/11/30 12:38:38;;;;;;;63.17;42.72;;;8.10;99.90;;;;;;5078383;28;20607;-76
2022/11/30 12:41:22;;;;;;;65.75;44.85;;;8.00;99.90;;;;;;5075610;28;20302;-76
2022/11/30 12:43:59;;;;;;;61.33;42.85;;;7.90;99.90;;;;;;5073237;28;20227;-76
2022/11/30 12:46:35;;;;;;;62.20;44.92;;;7.90;99.90;;;;;;5074063;28;20274;-76
2022/11/30 12:49:27;;;;;;;66.55;43.42;;;7.80;99.90;;;;;;5074279;28;20223;-77
2022/11/30 12:52:06;;;;;;;65.00;43.85;;;7.80;99.90;;;;;;5075839;28;20297;-77
2022/11/30 12:54:41;;;;;;;61.22;42.83;;;7.70;99.90;;;;;;5075743;28;20694;-77
2022/11/30 12:57:16;;;;;;;64.63;43.10;;;7.70;99.90;;;;;;5075839;28;20281;-77
2022/11/30 12:59:53;;;;;;;70.55;45.83;;;7.80;99.90;;;;;;5075842;28;20310;-76
2022/11/30 13:02:40;;;;;;;67.65;48.20;;;7.80;99.90;;;;;;5076256;28;20223;-76
2022/11/30 13:05:12;;;;;;;80.38;47.47;;;7.70;99.90;;;;;;5075498;28;20243;-76
2022/11/30 13:07:45;;;;;;;73.78;49.20;;;7.70;99.90;;;;;;5075394;28;20666;-76
2022/11/30 13:10:23;;;;;;;69.70;47.08;;;7.70;99.90;;;;;;5075066;28;20646;-76
2022/11/30 13:12:53;;;;;;;71.70;46.63;;;7.70;99.90;;;;;;5075282;28;20711;-77
2022/11/30 13:15:23;;;;;;;64.85;46.10;;;7.70;99.90;;;;;;5074985;28;20220;-76
2022/11/30 13:17:51;;;;;;;71.57;49.00;;;7.80;99.90;;;;;;5074784;28;20299;-76
2022/11/30 13:20:23;;;;;;;69.50;48.50;;;7.80;99.90;;;;;;5074443;28;20232;-76
2022/11/30 13:22:57;;;;;;;66.50;47.20;;;7.80;99.90;;;;;;5075240;28;20251;-76
2022/11/30 13:25:32;;;;;;;66.00;48.38;;;7.80;99.90;;;;;;5074147;28;20261;-75
2022/11/30 13:28:12;;;;;;;78.07;49.42;;;7.90;99.90;;;;;;5076175;28;20235;-77
2022/11/30 13:30:44;;;;;;;66.85;48.15;;;7.90;99.90;;;;;;5075481;28;20530;-78
2022/11/30 13:33:48;;;;;;;66.63;46.15;;;7.80;99.90;;;;;;5076484;28;20534;-77
2022/11/30 13:36:31;;;;;;;68.38;46.47;;;7.80;99.90;;;;;;5075407;28;20256;-76
2022/11/30 13:39:29;;;;;;;72.15;48.45;;;7.90;99.90;;;;;;5078732;28;20227;-76
2022/11/30 13:42:33;;;;;;;72.18;45.85;;;7.90;99.90;;;;;;5078700;28;20235;-76
2022/11/30 13:45:19;;;;;;;65.38;45.85;;;7.80;99.90;;;;;;5018112;28;20311;-77
2022/11/30 13:47:49;;;;;;;70.20;45.50;;;7.80;99.90;;;;;;5015985;28;20243;-77
2022/11/30 13:50:24;;;;;;;63.75;43.65;;;7.60;99.90;;;;;;5059721;28;20296;-77
2022/11/30 13:53:22;;;;;;;66.90;45.40;;;7.50;99.90;;;;;;5081369;28;20247;-77
2022/11/30 13:56:04;;;;;;;65.55;46.60;;;7.40;99.90;;;;;;5066800;28;20697;-77
2022/11/30 13:58:31;;;;;;;70.03;46.90;;;7.40;99.90;;;;;;5089874;28;20220;-77
2022/11/30 14:01:27;;;;;;;65.55;47.40;;;7.30;99.90;;;;;;5080236;28;20246;-77
2022/11/30 14:04:32;;;;;;;69.55;48.33;;;7.20;99.90;;;;;;5079550;28;20220;-77
2022/11/30 14:07:08;;;;;;;69.07;45.03;;;7.10;99.90;;;;;;5079385;28;20295;-77
2022/11/30 14:09:59;;;;;;;70.15;46.97;;;7.10;99.90;;;;;;5079678;28;20228;-78
2022/11/30 14:12:49;;;;;;;68.93;41.67;;;6.90;99.90;;;;;;5078777;28;20250;-76
2022/11/30 14:15:52;;;;;;;75.63;46.17;;;6.70;99.90;;;;;;5070035;28;20232;-75
2022/11/30 14:18:31;;;;;;;78.22;46.22;;;6.60;99.90;;;;;;5075312;28;20223;-76
2022/11/30 14:21:01;;;;;;;72.30;45.80;;;6.50;99.90;;;;;;5076191;28;20224;-77
2022/11/30 14:23:36;;;;;;;71.93;46.13;;;6.30;99.90;;;;;;5076263;28;20322;-76
2022/11/30 14:26:08;;;;;;;72.40;46.25;;;6.30;99.90;;;;;;5073788;28;20574;-75
2022/11/30 14:28:40;;;;;;;77.47;47.33;;;6.20;99.90;;;;;;5072822;28;20224;-76
2022/11/30 14:31:10;;;;;;;83.28;48.90;;;6.10;99.90;;;;;;5073818;28;20255;-76
2022/11/30 14:33:43;;;;;;;78.68;47.53;;;6.10;99.90;;;;;;5073517;28;20215;-77
2022/11/30 14:36:18;;;;;;;72.45;44.60;;;6.10;99.90;;;;;;5074471;28;20231;-75
2022/11/30 14:38:45;;;;;;;70.05;43.25;;;6.00;99.90;;;;;;5062683;28;20224;-76
2022/11/30 14:41:27;;;;;;;79.43;46.45;;;5.90;99.90;;;;;;5079579;28;20220;-77
2022/11/30 14:44:00;;;;;;;78.30;45.20;;;5.80;99.90;;;;;;5078287;28;20237;-77
2022/11/30 14:46:27;;;;;;;73.60;46.25;;;5.70;99.90;;;;;;5083794;28;20665;-77
2022/11/30 14:49:05;;;;;;;71.35;45.30;;;5.60;99.90;;;;;;5082579;28;20234;-75
2022/11/30 14:51:33;;;;;;;75.47;47.08;;;5.50;99.90;;;;;;5080205;28;20246;-76
2022/11/30 14:54:08;;;;;;;80.55;45.42;;;5.40;99.90;;;;;;5086471;28;20236;-77